createdAt,value
2023-07-15T00:01:26.317Z,6.43
2023-07-15T00:03:22.659Z,6.43
2023-07-15T00:05:22.877Z,6.43
2023-07-15T00:07:22.528Z,6.43
2023-07-15T00:09:22.650Z,6.43
2023-07-15T00:11:22.732Z,6.43
2023-07-15T00:13:22.148Z,6.43
2023-07-15T00:15:23.841Z,6.43
2023-07-15T00:17:23.069Z,6.43
2023-07-15T00:19:21.936Z,6.43
2023-07-15T00:21:22.834Z,6.43
2023-07-15T00:23:23.472Z,6.43
2023-07-15T00:25:22.731Z,6.43
2023-07-15T00:27:22.871Z,6.43
2023-07-15T00:29:21.967Z,6.43
2023-07-15T00:31:23.037Z,6.43
2023-07-15T00:33:23.106Z,6.43
2023-07-15T00:35:22.055Z,6.43
2023-07-15T00:37:23.149Z,6.43
2023-07-15T00:39:22.671Z,6.43
2023-07-15T00:41:22.419Z,6.43
2023-07-15T00:43:25.768Z,6.43
2023-07-15T00:45:22.305Z,6.43
2023-07-15T00:47:23.044Z,6.43
2023-07-15T00:49:22.795Z,6.43
2023-07-15T00:51:22.452Z,6.43
2023-07-15T00:53:21.902Z,6.43
2023-07-15T00:55:22.625Z,6.43
2023-07-15T00:57:22.862Z,6.43
2023-07-15T00:59:22.732Z,6.43
2023-07-15T01:01:26.438Z,6.43
2023-07-15T01:03:23.130Z,6.43
2023-07-15T01:05:21.910Z,6.43
2023-07-15T01:07:23.153Z,6.43
2023-07-15T01:09:22.384Z,6.43
2023-07-15T01:11:23.160Z,6.43
2023-07-15T01:13:22.177Z,6.43
2023-07-15T01:15:21.941Z,6.43
2023-07-15T01:17:23.791Z,6.43
2023-07-15T01:19:22.191Z,6.43
2023-07-15T01:21:22.767Z,6.43
2023-07-15T01:23:22.550Z,6.43
2023-07-15T01:25:21.996Z,6.43
2023-07-15T01:27:22.998Z,6.43
2023-07-15T01:29:22.607Z,6.43
2023-07-15T01:31:22.569Z,6.43
2023-07-15T01:33:22.141Z,6.43
2023-07-15T01:35:22.581Z,6.43
2023-07-15T01:37:22.927Z,6.43
2023-07-15T01:39:22.053Z,6.43
2023-07-15T01:41:22.694Z,6.43
2023-07-15T01:43:22.040Z,6.43
2023-07-15T01:45:22.899Z,6.43
2023-07-15T01:47:23.723Z,6.43
2023-07-15T01:49:24.042Z,6.43
2023-07-15T01:51:22.562Z,6.43
2023-07-15T01:53:22.153Z,6.43
2023-07-15T01:55:22.677Z,6.43
2023-07-15T01:57:22.965Z,6.43
2023-07-15T01:59:21.889Z,6.43
2023-07-15T02:01:30.092Z,6.43
2023-07-15T02:03:23.830Z,6.43
2023-07-15T02:05:22.321Z,6.43
2023-07-15T02:07:23.639Z,6.43
2023-07-15T02:09:23.095Z,6.43
2023-07-15T02:11:22.331Z,6.43
2023-07-15T02:13:21.940Z,6.43
2023-07-15T02:15:22.663Z,6.43
2023-07-15T02:17:23.037Z,6.43
2023-07-15T02:19:22.751Z,6.43
2023-07-15T02:21:22.738Z,6.43
2023-07-15T02:23:22.322Z,6.43
2023-07-15T02:25:22.469Z,6.43
2023-07-15T02:27:22.539Z,6.43
2023-07-15T02:29:22.731Z,6.43
2023-07-15T02:31:22.860Z,6.43
2023-07-15T02:33:22.195Z,6.43
2023-07-15T02:35:22.792Z,6.43
2023-07-15T02:37:23.112Z,6.43
2023-07-15T02:39:22.192Z,6.43
2023-07-15T02:41:22.153Z,6.43
2023-07-15T02:43:22.719Z,6.43
2023-07-15T02:45:22.337Z,6.43
2023-07-15T02:47:24.214Z,6.43
2023-07-15T02:49:22.384Z,6.43
2023-07-15T02:51:22.268Z,6.43
2023-07-15T02:53:22.626Z,6.43
2023-07-15T02:55:22.290Z,6.43
2023-07-15T02:57:22.660Z,6.43
2023-07-15T02:59:22.730Z,6.43
2023-07-15T03:01:26.227Z,6.43
2023-07-15T03:03:22.575Z,6.43
2023-07-15T03:05:23.141Z,6.43
2023-07-15T03:07:22.695Z,6.43
2023-07-15T03:09:25.194Z,6.43
2023-07-15T03:11:22.711Z,6.43
2023-07-15T03:13:22.376Z,6.43
2023-07-15T03:15:21.792Z,6.43
2023-07-15T03:17:23.641Z,6.43
2023-07-15T03:19:22.168Z,6.43
2023-07-15T03:21:22.693Z,6.43
2023-07-15T03:23:22.549Z,6.43
2023-07-15T03:25:22.596Z,6.43
2023-07-15T03:27:22.801Z,6.43
2023-07-15T03:29:21.848Z,6.43
2023-07-15T03:31:22.576Z,6.43
2023-07-15T03:33:22.357Z,6.43
2023-07-15T03:35:24.865Z,6.43
2023-07-15T03:37:22.158Z,6.43
2023-07-15T03:39:21.922Z,6.43
2023-07-15T03:41:22.957Z,6.43
2023-07-15T03:43:22.435Z,6.43
2023-07-15T03:45:21.946Z,6.43
2023-07-15T03:47:23.464Z,6.43
2023-07-15T03:49:22.264Z,6.43
2023-07-15T03:51:22.816Z,6.43
2023-07-15T03:53:22.311Z,6.43
2023-07-15T03:55:21.933Z,6.43
2023-07-15T03:57:22.918Z,6.43
2023-07-15T03:59:22.341Z,6.43
2023-07-15T04:01:25.595Z,6.43
2023-07-15T04:03:22.688Z,6.43
2023-07-15T04:05:22.478Z,6.43
2023-07-15T04:07:22.493Z,6.43
2023-07-15T04:09:22.583Z,6.43
2023-07-15T04:11:22.286Z,6.43
2023-07-15T04:13:21.994Z,6.43
2023-07-15T04:15:22.599Z,6.43
2023-07-15T04:17:23.568Z,6.43
2023-07-15T04:19:22.899Z,6.43
2023-07-15T04:21:23.082Z,6.43
2023-07-15T04:23:22.428Z,6.43
2023-07-15T04:25:22.705Z,6.43
2023-07-15T04:27:22.991Z,6.43
2023-07-15T04:29:22.582Z,6.43
2023-07-15T04:31:22.591Z,6.43
2023-07-15T04:33:22.291Z,6.43
2023-07-15T04:35:23.480Z,6.43
2023-07-15T04:37:22.748Z,6.43
2023-07-15T04:39:21.903Z,6.43
2023-07-15T04:41:22.703Z,6.43
2023-07-15T04:43:22.733Z,6.43
2023-07-15T04:45:22.154Z,6.43
2023-07-15T04:47:22.928Z,6.43
2023-07-15T04:49:22.709Z,6.43
2023-07-15T04:51:22.230Z,6.43
2023-07-15T04:53:21.815Z,6.43
2023-07-15T04:55:22.594Z,6.43
2023-07-15T04:57:22.436Z,6.43
2023-07-15T04:59:22.488Z,6.43
2023-07-15T05:01:27.475Z,6.43
2023-07-15T05:03:23.300Z,6.43
2023-07-15T05:05:22.357Z,6.43
2023-07-15T05:07:22.914Z,6.43
2023-07-15T05:09:22.263Z,6.43
2023-07-15T05:11:23.237Z,6.43
2023-07-15T05:13:22.427Z,6.43
2023-07-15T05:15:22.054Z,6.43
2023-07-15T05:17:22.859Z,6.43
2023-07-15T05:19:22.236Z,6.43
2023-07-15T05:21:22.851Z,6.43
2023-07-15T05:23:22.841Z,6.43
2023-07-15T05:25:26.534Z,6.43
2023-07-15T05:27:22.373Z,6.43
2023-07-15T05:29:22.122Z,6.43
2023-07-15T05:31:22.227Z,6.43
2023-07-15T05:33:22.705Z,6.43
2023-07-15T05:35:22.110Z,6.43
2023-07-15T05:37:22.499Z,6.43
2023-07-15T05:39:23.414Z,6.43
2023-07-15T05:41:22.832Z,6.43
2023-07-15T05:43:22.526Z,6.43
2023-07-15T05:45:22.123Z,6.43
2023-07-15T05:47:23.001Z,6.43
2023-07-15T05:49:24.217Z,6.43
2023-07-15T05:51:22.152Z,6.43
2023-07-15T05:53:22.707Z,6.43
2023-07-15T05:55:22.003Z,6.43
2023-07-15T05:57:22.614Z,6.43
2023-07-15T05:59:22.544Z,6.43
2023-07-15T06:01:23.621Z,6.43
2023-07-15T06:03:23.531Z,6.43
2023-07-15T06:05:22.458Z,6.43
2023-07-15T06:07:22.726Z,6.43
2023-07-15T06:09:22.549Z,6.43
2023-07-15T06:11:22.519Z,6.43
2023-07-15T06:13:23.703Z,6.43
2023-07-15T06:15:22.211Z,6.43
2023-07-15T06:17:23.114Z,6.43
2023-07-15T06:19:22.520Z,6.43
2023-07-15T06:21:23.418Z,6.43
2023-07-15T06:23:27.018Z,6.43
2023-07-15T06:25:21.858Z,6.43
2023-07-15T06:27:23.217Z,6.43
2023-07-15T06:29:22.345Z,6.43
2023-07-15T06:31:26.730Z,6.43
2023-07-15T06:33:22.417Z,6.43
2023-07-15T06:35:22.617Z,6.43
2023-07-15T06:37:22.526Z,6.43
2023-07-15T06:41:22.578Z,6.43
2023-07-15T06:43:21.884Z,6.43
2023-07-15T06:45:23.081Z,6.43
2023-07-15T06:47:22.653Z,6.43
2023-07-15T06:49:22.754Z,6.43
2023-07-15T06:51:22.120Z,6.43
2023-07-15T06:53:22.608Z,6.43
2023-07-15T06:55:22.255Z,6.43
2023-07-15T06:57:40.292Z,6.43
2023-07-15T06:59:22.552Z,6.43
2023-07-15T07:01:28.182Z,6.43
2023-07-15T07:03:22.867Z,6.43
2023-07-15T07:05:22.231Z,6.43
2023-07-15T07:07:22.266Z,6.43
2023-07-15T07:09:22.456Z,6.43
2023-07-15T07:11:22.220Z,6.43
2023-07-15T07:13:22.704Z,6.43
2023-07-15T07:15:22.319Z,6.43
2023-07-15T07:17:22.857Z,6.43
2023-07-15T07:19:23.436Z,6.43
2023-07-15T07:21:26.145Z,6.43
2023-07-15T07:23:22.517Z,6.43
2023-07-15T07:25:22.763Z,6.43
2023-07-15T07:27:22.193Z,6.43
2023-07-15T07:29:21.777Z,6.43
2023-07-15T07:31:23.427Z,6.43
2023-07-15T07:33:22.401Z,6.43
2023-07-15T07:35:22.714Z,6.43
2023-07-15T07:37:24.543Z,6.43
2023-07-15T07:39:22.567Z,6.43
2023-07-15T07:41:22.653Z,6.43
2023-07-15T07:43:24.135Z,6.43
2023-07-15T07:45:22.539Z,6.43
2023-07-15T07:47:22.341Z,6.43
2023-07-15T07:49:22.721Z,6.43
2023-07-15T07:51:22.547Z,6.43
2023-07-15T07:53:22.058Z,6.43
2023-07-15T07:55:22.748Z,6.43
2023-07-15T07:57:22.189Z,6.43
2023-07-15T07:59:22.567Z,6.43
2023-07-15T08:01:26.761Z,6.43
2023-07-15T08:03:23.844Z,6.43
2023-07-15T08:05:22.980Z,6.43
2023-07-15T08:07:21.868Z,6.43
2023-07-15T08:09:22.415Z,6.43
2023-07-15T08:11:22.195Z,6.43
2023-07-15T08:13:22.648Z,6.43
2023-07-15T08:15:22.256Z,6.43
2023-07-15T08:17:23.410Z,6.43
2023-07-15T08:19:22.306Z,6.43
2023-07-15T08:21:23.094Z,6.43
2023-07-15T08:23:23.371Z,6.43
2023-07-15T08:25:21.973Z,6.43
2023-07-15T08:27:22.598Z,6.43
2023-07-15T08:29:22.566Z,6.43
2023-07-15T08:31:22.554Z,6.43
2023-07-15T08:33:23.571Z,6.43
2023-07-15T08:35:22.148Z,6.43
2023-07-15T08:37:21.826Z,6.43
2023-07-15T08:39:22.565Z,6.43
2023-07-15T08:41:22.466Z,6.43
2023-07-15T08:43:22.834Z,6.43
2023-07-15T08:45:22.437Z,6.43
2023-07-15T08:47:23.027Z,6.43
2023-07-15T08:49:22.898Z,6.43
2023-07-15T08:51:22.716Z,6.43
2023-07-15T08:53:22.022Z,6.43
2023-07-15T08:55:23.101Z,6.43
2023-07-15T08:57:22.102Z,6.43
2023-07-15T08:59:22.513Z,6.43
2023-07-15T09:01:28.776Z,6.43
2023-07-15T09:03:23.144Z,6.43
2023-07-15T09:05:23.500Z,6.43
2023-07-15T09:07:22.080Z,6.43
2023-07-15T09:09:22.661Z,6.43
2023-07-15T09:11:22.578Z,6.43
2023-07-15T09:13:22.172Z,6.43
2023-07-15T09:15:29.265Z,6.43
2023-07-15T09:17:23.207Z,6.43
2023-07-15T09:19:22.901Z,6.43
2023-07-15T09:21:23.565Z,6.43
2023-07-15T09:23:22.450Z,6.43
2023-07-15T09:25:22.427Z,6.43
2023-07-15T09:27:25.406Z,6.43
2023-07-15T09:29:22.618Z,6.43
2023-07-15T09:31:22.522Z,6.43
2023-07-15T09:33:22.986Z,6.43
2023-07-15T09:35:22.483Z,6.43
2023-07-15T09:37:22.675Z,6.43
2023-07-15T09:39:22.381Z,6.43
2023-07-15T09:41:22.286Z,6.43
2023-07-15T09:43:22.545Z,6.43
2023-07-15T09:45:22.379Z,6.43
2023-07-15T09:47:22.356Z,6.43
2023-07-15T09:49:22.644Z,6.43
2023-07-15T09:51:22.319Z,6.43
2023-07-15T09:53:21.960Z,6.43
2023-07-15T09:55:22.585Z,6.43
2023-07-15T09:57:22.094Z,6.43
2023-07-15T09:59:22.707Z,6.43
2023-07-15T10:01:26.222Z,6.43
2023-07-15T10:03:25.427Z,6.43
2023-07-15T10:05:22.837Z,6.43
2023-07-15T10:07:22.296Z,6.43
2023-07-15T10:09:26.552Z,6.43
2023-07-15T10:11:22.804Z,6.43
2023-07-15T10:13:22.297Z,6.43
2023-07-15T10:15:22.824Z,6.43
2023-07-15T10:17:22.772Z,6.43
2023-07-15T10:19:22.985Z,6.43
2023-07-15T10:21:25.887Z,6.43
2023-07-15T10:23:22.650Z,6.43
2023-07-15T10:25:22.804Z,6.43
2023-07-15T10:27:22.645Z,6.43
2023-07-15T10:29:22.351Z,6.43
2023-07-15T10:31:41.484Z,6.43
2023-07-15T10:33:24.412Z,6.43
2023-07-15T10:35:22.336Z,6.43
2023-07-15T10:37:21.888Z,6.43
2023-07-15T10:39:24.691Z,6.43
2023-07-15T10:41:22.338Z,6.43
2023-07-15T10:43:22.789Z,6.43
2023-07-15T10:45:22.400Z,6.43
2023-07-15T10:47:24.265Z,6.43
2023-07-15T10:49:23.131Z,6.43
2023-07-15T10:51:22.445Z,6.43
2023-07-15T10:53:22.797Z,6.43
2023-07-15T10:55:22.632Z,6.43
2023-07-15T10:57:23.257Z,6.43
2023-07-15T10:59:22.526Z,6.43
2023-07-15T11:01:23.009Z,6.43
2023-07-15T11:03:23.210Z,6.43
2023-07-15T11:05:23.395Z,6.43
2023-07-15T11:07:23.843Z,6.43
2023-07-15T11:09:22.741Z,6.43
2023-07-15T11:11:22.450Z,6.43
2023-07-15T11:13:21.758Z,6.43
2023-07-15T11:15:22.574Z,6.43
2023-07-15T11:17:22.785Z,6.43
2023-07-15T11:19:22.986Z,6.43
2023-07-15T11:21:22.778Z,6.43
2023-07-15T11:23:22.500Z,6.43
2023-07-15T11:25:22.726Z,6.43
2023-07-15T11:27:23.550Z,6.43
2023-07-15T11:29:22.271Z,6.43
2023-07-15T11:31:23.261Z,6.43
2023-07-15T11:33:22.462Z,6.43
2023-07-15T11:35:24.649Z,6.43
2023-07-15T11:37:23.204Z,6.43
2023-07-15T11:39:22.182Z,6.43
2023-07-15T11:41:26.639Z,6.43
2023-07-15T11:43:22.348Z,6.43
2023-07-15T11:45:26.103Z,6.43
2023-07-15T11:47:23.741Z,6.43
2023-07-15T11:49:22.629Z,6.43
2023-07-15T11:51:22.922Z,6.43
2023-07-15T11:53:22.421Z,6.43
2023-07-15T11:55:22.417Z,6.43
2023-07-15T11:57:23.526Z,6.43
2023-07-15T11:59:22.230Z,6.43
2023-07-15T12:01:44.705Z,6.43
2023-07-15T12:03:26.922Z,6.43
2023-07-15T12:05:22.690Z,6.43
2023-07-15T12:07:23.228Z,6.43
2023-07-15T12:09:22.465Z,6.43
2023-07-15T12:11:22.329Z,6.43
2023-07-15T12:13:23.822Z,6.43
2023-07-15T12:15:22.589Z,0.17
2023-07-15T12:17:23.385Z,0.2
2023-07-15T12:19:25.331Z,0.2
2023-07-15T12:21:22.082Z,0.39
2023-07-15T12:23:23.140Z,0.4
2023-07-15T12:25:22.554Z,0.4
2023-07-15T12:27:22.725Z,0.4
2023-07-15T12:29:22.526Z,0.4
2023-07-15T12:31:26.953Z,0.4
2023-07-15T12:33:22.861Z,0.4
2023-07-15T12:35:26.075Z,0.4
2023-07-15T12:37:21.815Z,0.4
2023-07-15T12:39:22.664Z,0.4
2023-07-15T12:41:22.400Z,0.4
2023-07-15T12:43:22.705Z,0.4
2023-07-15T12:45:22.286Z,0.4
2023-07-15T12:47:23.259Z,0.4
2023-07-15T12:49:22.751Z,0.4
2023-07-15T12:51:22.573Z,0.4
2023-07-15T12:53:22.024Z,0.4
2023-07-15T12:55:22.538Z,0.4
2023-07-15T12:57:22.502Z,0.4
2023-07-15T12:59:25.418Z,0.4
2023-07-15T13:01:25.738Z,0.4
2023-07-15T13:03:22.787Z,0.4
2023-07-15T13:05:26.668Z,0.4
2023-07-15T13:07:22.074Z,0.4
2023-07-15T13:09:22.389Z,0.4
2023-07-15T13:11:22.568Z,0.4
2023-07-15T13:13:22.129Z,0.4
2023-07-15T13:15:22.682Z,0.4
2023-07-15T13:17:23.309Z,0.4
2023-07-15T13:19:21.835Z,0.4
2023-07-15T13:21:23.044Z,0.4
2023-07-15T13:23:22.783Z,0.4
2023-07-15T13:25:22.636Z,0.4
2023-07-15T13:27:22.525Z,0.4
2023-07-15T13:29:22.146Z,0.4
2023-07-15T13:31:23.225Z,0.4
2023-07-15T13:33:23.075Z,0.4
2023-07-15T13:35:22.281Z,0.4
2023-07-15T13:37:22.662Z,0.4
2023-07-15T13:39:24.151Z,0.4
2023-07-15T13:41:22.316Z,0.4
2023-07-15T13:43:22.745Z,0.4
2023-07-15T13:45:25.892Z,0.4
2023-07-15T13:47:22.899Z,0.4
2023-07-15T13:49:24.931Z,0.4
2023-07-15T13:51:22.081Z,0.4
2023-07-15T13:53:22.732Z,0.4
2023-07-15T13:55:22.207Z,0.4
2023-07-15T13:57:22.714Z,0.4
2023-07-15T13:59:22.580Z,0.4
2023-07-15T14:01:34.747Z,0.4
2023-07-15T14:03:22.734Z,0.4
2023-07-15T14:05:22.521Z,0.4
2023-07-15T14:07:23.083Z,0.4
2023-07-15T14:09:22.404Z,0.4
2023-07-15T14:11:22.271Z,0.4
2023-07-15T14:13:22.795Z,0.4
2023-07-15T14:15:22.170Z,0.4
2023-07-15T14:17:22.626Z,0.4
2023-07-15T14:19:22.456Z,0.4
2023-07-15T14:21:22.312Z,0.4
2023-07-15T14:23:58.240Z,0.4
2023-07-15T14:25:22.812Z,0.4
2023-07-15T14:27:22.633Z,0.4
2023-07-15T14:29:22.142Z,0.4
2023-07-15T14:31:23.403Z,0.4
2023-07-15T14:33:25.250Z,0.4
2023-07-15T14:35:22.253Z,0.4
2023-07-15T14:37:23.111Z,0.4
2023-07-15T14:43:23.077Z,0.4
2023-07-15T14:45:34.515Z,0.4
2023-07-15T14:47:22.471Z,0.4
2023-07-15T14:49:24.952Z,0.4
2023-07-15T14:51:22.176Z,0.4
2023-07-15T14:53:21.868Z,0.4
2023-07-15T14:55:25.195Z,0.4
2023-07-15T14:57:22.196Z,0.4
2023-07-15T14:59:22.626Z,0.4
2023-07-15T15:01:30.441Z,0.4
2023-07-15T15:03:22.464Z,0.4
2023-07-15T15:05:22.936Z,0.4
2023-07-15T15:07:25.273Z,0.4
2023-07-15T15:09:22.723Z,0.4
2023-07-15T15:11:22.475Z,0.4
2023-07-15T15:13:27.076Z,0.4
2023-07-15T15:15:22.422Z,0.4
2023-07-15T15:17:22.778Z,0.4
2023-07-15T15:19:26.434Z,0.4
2023-07-15T15:21:22.438Z,0.4
2023-07-15T15:23:22.487Z,0.4
2023-07-15T15:25:27.291Z,0.4
2023-07-15T15:27:22.455Z,0.4
2023-07-15T15:29:21.957Z,0.4
2023-07-15T15:31:24.844Z,0.4
2023-07-15T15:33:23.133Z,0.4
2023-07-15T15:35:23.265Z,0.4
2023-07-15T15:37:22.927Z,0.4
2023-07-15T15:39:22.042Z,0.4
2023-07-15T15:41:22.831Z,0.4
2023-07-15T15:43:22.324Z,0.4
2023-07-15T15:45:22.026Z,0.4
2023-07-15T15:47:22.968Z,0.4
2023-07-15T15:49:25.821Z,0.4
2023-07-15T15:51:21.916Z,0.4
2023-07-15T15:53:22.714Z,0.4
2023-07-15T15:55:22.426Z,0.4
2023-07-15T15:57:21.852Z,0.4
2023-07-15T15:59:22.521Z,0.4
2023-07-15T16:01:22.390Z,0.4
2023-07-15T16:03:23.346Z,0.4
2023-07-15T16:05:22.869Z,0.4
2023-07-15T16:07:22.786Z,0.4
2023-07-15T16:09:22.612Z,0.4
2023-07-15T16:11:22.852Z,0.4
2023-07-15T16:13:24.514Z,0.4
2023-07-15T16:15:22.547Z,0.4
2023-07-15T16:17:22.477Z,0.4
2023-07-15T16:19:22.983Z,0.4
2023-07-15T16:21:22.621Z,0.4
2023-07-15T16:23:22.343Z,0.4
2023-07-15T16:25:22.396Z,0.4
2023-07-15T16:27:21.915Z,0.4
2023-07-15T16:29:22.783Z,0.22
2023-07-15T16:31:22.557Z,0.27
2023-07-15T16:33:23.775Z,0.27
2023-07-15T16:35:22.220Z,0.62
2023-07-15T16:37:24.626Z,0.64
2023-07-15T16:39:22.319Z,0.64
2023-07-15T16:41:22.228Z,0.86
2023-07-15T16:43:24.185Z,0.87
2023-07-15T16:45:21.921Z,0.87
2023-07-15T16:47:23.094Z,0.96
2023-07-15T16:49:23.340Z,0.97
2023-07-15T16:51:22.178Z,0.97
2023-07-15T16:53:22.629Z,1.05
2023-07-15T16:55:22.220Z,1.06
2023-07-15T16:57:23.366Z,1.06
2023-07-15T16:59:22.871Z,1.16
2023-07-15T17:01:29.976Z,1.17
2023-07-15T17:03:23.140Z,1.17
2023-07-15T17:05:22.266Z,1.28
2023-07-15T17:07:22.350Z,1.3
2023-07-15T17:09:22.337Z,1.3
2023-07-15T17:11:23.071Z,1.39
2023-07-15T17:13:22.261Z,1.4
2023-07-15T17:15:22.091Z,1.4
2023-07-15T17:17:23.181Z,1.44
2023-07-15T17:19:22.197Z,1.45
2023-07-15T17:21:22.728Z,1.45
2023-07-15T17:23:22.751Z,1.51
2023-07-15T17:25:22.055Z,1.52
2023-07-15T17:27:22.737Z,1.52
2023-07-15T17:29:22.385Z,1.6
2023-07-15T17:31:22.973Z,1.61
2023-07-15T17:33:25.344Z,1.61
2023-07-15T17:35:22.097Z,1.71
2023-07-15T17:37:22.936Z,1.7
2023-07-15T17:39:22.580Z,1.7
2023-07-15T17:41:22.139Z,1.7
2023-07-15T17:43:23.997Z,1.69
2023-07-15T17:45:22.559Z,1.69
2023-07-15T17:47:23.435Z,1.9
2023-07-15T17:49:22.539Z,1.96
2023-07-15T17:51:22.524Z,1.96
2023-07-15T17:53:26.356Z,1.93
2023-07-15T17:55:37.695Z,1.94
2023-07-15T17:57:22.120Z,1.94
2023-07-15T17:59:22.715Z,1.94
2023-07-15T18:01:29.160Z,1.89
2023-07-15T18:03:25.255Z,1.89
2023-07-15T18:05:21.996Z,1.92
2023-07-15T18:07:22.303Z,1.93
2023-07-15T18:09:26.929Z,1.93
2023-07-15T18:11:22.378Z,2.14
2023-07-15T18:13:22.262Z,2.07
2023-07-15T18:15:22.716Z,2.07
2023-07-15T18:17:25.830Z,2.19
2023-07-15T18:19:21.760Z,2.16
2023-07-15T18:21:23.200Z,2.16
2023-07-15T18:23:22.756Z,2.65
2023-07-15T18:25:22.958Z,2.58
2023-07-15T18:27:23.012Z,2.58
2023-07-15T18:29:22.080Z,3.74
2023-07-15T18:31:23.214Z,3.84
2023-07-15T18:33:23.094Z,3.84
2023-07-15T18:35:42.514Z,4.26
2023-07-15T18:37:22.161Z,4.45
2023-07-15T18:39:21.816Z,4.45
2023-07-15T18:41:22.825Z,4.87
2023-07-15T18:43:22.215Z,4.91
2023-07-15T18:45:22.786Z,4.91
2023-07-15T18:47:22.528Z,5.51
2023-07-15T18:49:22.999Z,5.51
2023-07-15T18:51:26.389Z,5.51
2023-07-15T18:53:21.945Z,5.91
2023-07-15T18:55:22.529Z,5.97
2023-07-15T18:57:35.569Z,5.97
2023-07-15T18:59:21.902Z,6.31
2023-07-15T19:01:26.434Z,6.37
2023-07-15T19:03:23.061Z,6.37
2023-07-15T19:05:22.164Z,6.37
2023-07-15T19:07:22.456Z,6.37
2023-07-15T19:09:22.194Z,6.37
2023-07-15T19:11:23.078Z,6.37
2023-07-15T19:13:22.320Z,6.37
2023-07-15T19:15:22.117Z,6.37
2023-07-15T19:17:22.446Z,6.37
2023-07-15T19:19:22.558Z,6.37
2023-07-15T19:21:22.305Z,6.37
2023-07-15T19:23:25.231Z,6.37
2023-07-15T19:25:22.412Z,6.37
2023-07-15T19:27:22.110Z,6.37
2023-07-15T19:29:22.671Z,6.37
2023-07-15T19:31:22.933Z,6.37
2023-07-15T19:33:22.272Z,6.37
2023-07-15T19:35:22.619Z,6.37
2023-07-15T19:37:22.413Z,6.37
2023-07-15T19:39:22.498Z,6.37
2023-07-15T19:41:22.789Z,6.37
2023-07-15T19:43:22.558Z,6.37
2023-07-15T19:45:23.227Z,6.37
2023-07-15T19:47:24.099Z,6.37
2023-07-15T19:49:22.199Z,6.37
2023-07-15T19:51:31.523Z,6.37
2023-07-15T19:53:25.992Z,6.37
2023-07-15T19:55:22.135Z,6.37
2023-07-15T19:57:23.317Z,6.37
2023-07-15T19:59:22.365Z,6.37
2023-07-15T20:01:26.275Z,6.37
2023-07-15T20:03:23.217Z,6.37
2023-07-15T20:05:22.757Z,6.37
2023-07-15T20:07:22.316Z,6.37
2023-07-15T20:09:22.504Z,6.37
2023-07-15T20:11:22.508Z,6.37
2023-07-15T20:13:21.992Z,6.37
2023-07-15T20:15:22.659Z,6.37
2023-07-15T20:17:23.593Z,6.37
2023-07-15T20:19:22.855Z,6.37
2023-07-15T20:21:22.576Z,6.37
2023-07-15T20:23:22.609Z,6.37
2023-07-15T20:25:21.817Z,6.37
2023-07-15T20:27:23.008Z,6.37
2023-07-15T20:29:22.048Z,6.37
2023-07-15T20:31:23.077Z,6.37
2023-07-15T20:33:26.297Z,6.37
2023-07-15T20:35:22.129Z,6.37
2023-07-15T20:37:22.742Z,6.37
2023-07-15T20:39:22.102Z,6.37
2023-07-15T20:41:40.979Z,6.37
2023-07-15T20:43:22.778Z,6.37
2023-07-15T20:45:22.308Z,6.37
2023-07-15T20:47:22.891Z,6.37
2023-07-15T20:49:22.783Z,6.37
2023-07-15T20:51:22.646Z,6.37
2023-07-15T20:53:22.097Z,6.37
2023-07-15T20:55:22.742Z,6.37
2023-07-15T20:57:22.654Z,6.37
2023-07-15T20:59:22.615Z,6.37
2023-07-15T21:01:32.133Z,6.37
2023-07-15T21:03:25.699Z,6.37
2023-07-15T21:05:22.829Z,6.37
2023-07-15T21:07:22.589Z,6.37
2023-07-15T21:09:21.944Z,6.37
2023-07-15T21:11:24.821Z,6.37
2023-07-15T21:13:22.904Z,6.37
2023-07-15T21:15:21.856Z,6.37
2023-07-15T21:17:23.503Z,6.37
2023-07-15T21:19:22.483Z,6.37
2023-07-15T21:21:25.801Z,6.37
2023-07-15T21:23:22.808Z,6.37
2023-07-15T21:25:22.135Z,6.37
2023-07-15T21:27:27.843Z,6.37
2023-07-15T21:29:22.832Z,6.37
2023-07-15T21:31:23.031Z,6.37
2023-07-15T21:33:23.459Z,6.37
2023-07-15T21:35:22.790Z,6.37
2023-07-15T21:37:22.974Z,6.37
2023-07-15T21:39:22.079Z,6.37
2023-07-15T21:41:22.893Z,6.37
2023-07-15T21:43:22.649Z,6.37
2023-07-15T21:45:21.811Z,6.37
2023-07-15T21:47:23.970Z,6.37
2023-07-15T21:49:22.244Z,6.37
2023-07-15T21:51:22.894Z,6.37
2023-07-15T21:53:22.668Z,6.37
2023-07-15T21:55:21.970Z,6.37
2023-07-15T21:57:23.216Z,6.37
2023-07-15T21:59:22.315Z,6.37
2023-07-15T22:01:26.508Z,6.37
2023-07-15T22:03:22.811Z,6.37
2023-07-15T22:05:21.841Z,6.37
2023-07-15T22:07:22.739Z,6.37
2023-07-15T22:09:22.289Z,6.37
2023-07-15T22:11:23.241Z,6.37
2023-07-15T22:13:22.675Z,6.37
2023-07-15T22:15:22.133Z,6.37
2023-07-15T22:17:23.260Z,6.37
2023-07-15T22:19:39.237Z,6.37
2023-07-15T22:21:22.788Z,6.37
2023-07-15T22:23:23.036Z,6.37
2023-07-15T22:25:22.159Z,6.37
2023-07-15T22:27:21.920Z,6.37
2023-07-15T22:29:22.629Z,6.37
2023-07-15T22:31:22.422Z,6.37
2023-07-15T22:33:22.960Z,6.37
2023-07-15T22:35:22.214Z,6.37
2023-07-15T22:37:22.190Z,6.37
2023-07-15T22:39:22.384Z,6.37
2023-07-15T22:41:22.464Z,6.37
2023-07-15T22:43:21.960Z,6.37
2023-07-15T22:45:23.706Z,6.37
2023-07-15T22:47:22.664Z,6.37
2023-07-15T22:49:22.774Z,6.37
2023-07-15T22:51:22.554Z,6.37
2023-07-15T22:53:23.175Z,6.37
2023-07-15T22:55:22.581Z,6.37
2023-07-15T22:57:23.043Z,6.37
2023-07-15T22:59:22.965Z,6.37
2023-07-15T23:01:23.727Z,6.37
2023-07-15T23:03:23.144Z,6.37
2023-07-15T23:05:22.629Z,6.37
2023-07-15T23:07:22.640Z,6.37
2023-07-15T23:09:22.775Z,6.37
2023-07-15T23:11:23.240Z,6.37
2023-07-15T23:13:21.791Z,6.37
2023-07-15T23:15:23.001Z,6.37
2023-07-15T23:17:42.898Z,6.37
2023-07-15T23:19:25.945Z,6.37
2023-07-15T23:21:22.598Z,6.37
2023-07-15T23:23:40.115Z,6.37
2023-07-15T23:25:22.489Z,6.37
2023-07-15T23:27:22.430Z,6.37
2023-07-15T23:29:22.689Z,6.37
2023-07-15T23:31:23.001Z,6.37
2023-07-15T23:33:22.327Z,6.37
2023-07-15T23:35:23.684Z,6.37
2023-07-15T23:37:23.175Z,6.37
2023-07-15T23:39:23.497Z,6.37
2023-07-15T23:41:22.677Z,6.37
2023-07-15T23:43:22.064Z,6.37
2023-07-15T23:45:22.804Z,6.37
2023-07-15T23:47:23.289Z,6.37
2023-07-15T23:49:21.993Z,6.37
2023-07-15T23:51:22.699Z,6.37
2023-07-15T23:53:22.344Z,6.37
2023-07-15T23:55:21.963Z,6.37
2023-07-15T23:57:22.770Z,6.37
2023-07-15T23:59:22.101Z,6.37
